Sunday, October 22, 2017, 5:15 PM EDT
Back to Local

KFMH, Otis Air National Guard Base

Location: Mashpee, MA, United States Lat: 41.65
Local Time: 5:15 PM EDT (21:15 GMT) Lon: -70.517
Time Zone: US/Eastern Elev: 131 ft

Show me the last for .
Show Decoded

2017-10-22 16:55 METAR KFMH 222055Z AUTO 00000KT 10SM CLR 20/16 A3039 RMK AO2 =
2017-10-22 16:35 METAR KFMH 222035Z AUTO 12005KT 10SM CLR 20/15 A3039 RMK AO2 =
2017-10-22 16:15 METAR KFMH 222015Z AUTO 13006KT 10SM CLR 21/16 A3039 RMK AO2 =
2017-10-22 15:55 METAR KFMH 221955Z AUTO 15006KT 10SM CLR 21/16 A3039 RMK AO2 =
2017-10-22 15:35 METAR KFMH 221935Z AUTO 16004KT 10SM CLR 22/16 A3039 RMK AO2 =
2017-10-22 15:15 METAR KFMH 221915Z AUTO 15006KT 10SM CLR 22/16 A3039 RMK AO2 =
2017-10-22 14:55 METAR KFMH 221855Z AUTO 15006KT 10SM CLR 23/16 A3039 RMK AO2 =
2017-10-22 14:35 METAR KFMH 221835Z AUTO 18007KT 10SM CLR 23/15 A3039 RMK AO2 =
2017-10-22 14:15 METAR KFMH 221815Z AUTO 16006KT 10SM CLR 23/14 A3039 RMK AO2 =
2017-10-22 13:55 METAR KFMH 221755Z AUTO VRB04KT 10SM CLR 24/13 A3039 RMK AO2 =
2017-10-22 13:35 METAR KFMH 221735Z AUTO 15005KT 10SM CLR 24/14 A3039 RMK AO2 =
2017-10-22 13:15 METAR KFMH 221715Z AUTO 19005KT 10SM CLR 24/14 A3039 RMK AO2 =
2017-10-22 12:55 METAR KFMH 221655Z AUTO 18007KT 10SM CLR 24/13 A3039 RMK AO2 =
2017-10-22 12:35 METAR KFMH 221635Z AUTO 19004KT 10SM CLR 24/11 A3040 RMK AO2 =
2017-10-22 12:15 METAR KFMH 221615Z AUTO 15006KT 10SM CLR 24/10 A3040 RMK AO2 =
2017-10-22 11:55 METAR KFMH 221555Z AUTO 14005KT 10SM CLR 23/13 A3040 RMK AO2 =
2017-10-22 11:35 METAR KFMH 221535Z AUTO 00000KT 10SM CLR 22/11 A3040 RMK AO2 =
2017-10-22 11:15 METAR KFMH 221515Z AUTO VRB03KT 10SM CLR 22/11 A3040 RMK AO2 =
2017-10-22 10:55 METAR KFMH 221455Z AUTO 00000KT 10SM CLR 21/14 A3041 RMK AO2 =
2017-10-22 10:35 METAR KFMH 221435Z AUTO 24003KT 10SM CLR 20/13 A3042 RMK AO2 =
2017-10-22 10:15 METAR KFMH 221415Z AUTO 22004KT 10SM CLR 19/13 A3042 RMK AO2 =
2017-10-22 09:55 METAR KFMH 221355Z AUTO 28003KT 10SM CLR 19/14 A3042 RMK AO2 =
2017-10-22 09:35 METAR KFMH 221335Z AUTO 25004KT 10SM CLR 16/16 A3042 RMK AO2 =
2017-10-22 09:15 METAR KFMH 221315Z AUTO 26003KT 10SM CLR 16/16 A3042 RMK AO2 =
2017-10-22 08:55 METAR KFMH 221255Z AUTO 00000KT 10SM FEW002 15/15 A3042 RMK AO2 =
2017-10-22 08:35 METAR KFMH 221235Z AUTO 00000KT 1/4SM FG BKN001 13/13 A3041 RMK AO2 =
2017-10-22 08:15 METAR KFMH 221215Z AUTO 00000KT 1/4SM FG BKN001 11/11 A3041 RMK AO2 =
2017-10-22 07:55 METAR KFMH 221155Z AUTO 00000KT M1/4SM FG BKN001 10/10 A3040 RMK AO2 =
2017-10-22 07:35 METAR KFMH 221135Z AUTO 00000KT M1/4SM FG BKN001 09/09 A3039 RMK AO2 =
2017-10-22 07:15 METAR KFMH 221115Z AUTO 00000KT M1/4SM FG OVC001 09/09 A3038 RMK AO2 =
2017-10-22 06:55 METAR KFMH 221055Z AUTO 00000KT M1/4SM FG OVC001 10/10 A3038 RMK AO2 =
2017-10-22 06:35 METAR KFMH 221035Z AUTO 00000KT 1/2SM FG OVC001 10/10 A3038 RMK AO2 =
2017-10-22 06:15 METAR KFMH 221015Z 00000KT 5SM MIFG BKN001 BKN042 10/10 A3037 RMK AO2 =
2017-10-22 05:55 METAR KFMH 220955Z 00000KT 10SM MIFG SKC 10/10 A3037 RMK AO2 =
2017-10-22 05:35 METAR KFMH 220935Z 00000KT 10SM MIFG SKC 10/10 A3037 RMK AO2 =
2017-10-22 05:15 METAR KFMH 220915Z 00000KT 10SM MIFG SKC 10/10 A3036 RMK AO2 =
2017-10-22 04:55 METAR KFMH 220855Z 00000KT 10SM MIFG CLR 10/10 A3036 RMK AO2 =
2017-10-22 04:35 METAR KFMH 220835Z AUTO 00000KT 1/4SM FG VV002 10/10 A3035 RMK AO2 =
2017-10-22 04:15 METAR KFMH 220815Z AUTO 29003KT M1/4SM FG BKN001 BKN043 11/11 A3035 RMK AO2 =
2017-10-22 03:55 METAR KFMH 220755Z AUTO 00000KT 1/4SM FG BKN001 BKN050 11/11 A3035 RMK AO2 =
2017-10-22 03:35 METAR KFMH 220735Z AUTO 00000KT 1/4SM FG BKN001 BKN050 11/11 A3035 RMK AO2 =
2017-10-22 03:15 METAR KFMH 220715Z AUTO 00000KT 1/2SM FG VV005 12/12 A3035 RMK AO2 =
2017-10-22 02:55 METAR KFMH 220655Z AUTO 00000KT 1/2SM BR VV005 12/12 A3035 RMK AO2 =
2017-10-22 02:15 METAR KFMH 220615Z AUTO 00000KT 10SM CLR 12/12 A3035 RMK AO2 =
2017-10-22 01:55 METAR KFMH 220555Z AUTO 00000KT 10SM CLR 12/12 A3035 RMK AO2 =
2017-10-22 01:35 METAR KFMH 220535Z AUTO 00000KT 10SM CLR 12/12 A3035 RMK AO2 =
2017-10-22 01:15 METAR KFMH 220515Z AUTO 00000KT 10SM CLR 12/12 A3035 RMK AO2 =
2017-10-22 00:55 METAR KFMH 220455Z AUTO 00000KT 10SM CLR 12/12 A3035 RMK AO2 =
2017-10-22 00:35 METAR KFMH 220435Z AUTO 22004KT 10SM CLR 13/13 A3036 RMK AO2 =
2017-10-22 00:15 METAR KFMH 220415Z AUTO 20003KT 10SM CLR 13/12 A3035 RMK AO2 =
2017-10-21 23:55 METAR KFMH 220355Z AUTO 23003KT 10SM CLR 13/12 A3035 RMK AO2 =
2017-10-21 23:35 METAR KFMH 220335Z AUTO 22003KT 10SM CLR 12/12 A3036 RMK AO2 =
2017-10-21 23:15 METAR KFMH 220315Z AUTO 20004KT 10SM CLR 12/11 A3035 RMK AO2 =
2017-10-21 22:55 METAR KFMH 220255Z AUTO 19004KT 10SM CLR 12/12 A3035 RMK AO2 =
2017-10-21 22:35 METAR KFMH 220235Z AUTO 21003KT 10SM CLR 13/12 A3035 RMK AO2 =
2017-10-21 22:15 METAR KFMH 220215Z AUTO 20003KT 10SM CLR 13/12 A3035 RMK AO2 =
2017-10-21 21:55 METAR KFMH 220155Z AUTO 20004KT 10SM CLR 14/12 A3035 RMK AO2 =
2017-10-21 21:35 METAR KFMH 220135Z AUTO 22004KT 10SM FEW050 14/12 A3035 RMK AO2 =
2017-10-21 21:15 METAR KFMH 220115Z AUTO 22004KT 10SM CLR 14/12 A3034 RMK AO2 =
2017-10-21 20:55 METAR KFMH 220055Z AUTO 24006KT 10SM CLR 15/13 A3034 RMK AO2 =
2017-10-21 20:35 METAR KFMH 220035Z AUTO 23006KT 10SM CLR 15/13 A3034 RMK AO2 =
2017-10-21 20:15 METAR KFMH 220015Z AUTO 23004KT 10SM CLR 14/13 A3033 RMK AO2 =
2017-10-21 19:55 METAR KFMH 212355Z AUTO 22005KT 10SM CLR 14/12 A3033 RMK AO2 =
2017-10-21 19:35 METAR KFMH 212335Z AUTO 23003KT 10SM CLR 14/13 A3033 RMK AO2 =
2017-10-21 19:15 METAR KFMH 212315Z AUTO 23006KT 10SM CLR 15/13 A3033 RMK AO2 =
2017-10-21 18:55 METAR KFMH 212255Z AUTO 24005KT 10SM CLR 15/12 A3032 RMK AO2 =
2017-10-21 18:35 METAR KFMH 212235Z AUTO 24008KT 10SM CLR 15/12 A3032 RMK AO2 =
2017-10-21 18:15 METAR KFMH 212215Z AUTO 24007KT 10SM CLR 15/11 A3032 RMK AO2 =
2017-10-21 17:55 METAR KFMH 212155Z AUTO 24007KT 10SM CLR 15/11 A3031 RMK AO2 =
2017-10-21 17:35 METAR KFMH 212135Z AUTO 24009KT 10SM CLR 16/10 A3030 RMK AO2 =

Support USWX by starting your Amazon purchase here.